Anthon, Iowa
Current Conditions -  °F | °C
As of 6:52 PM on Saturday 25 Oct 2014 (Local Time) from KSUX Reporting Station
Clear Clear  
Wind Chill: 14°   Ceiling: Unl
Heat Index: 14°   Visibility: 10mi
Dew Point:   Wind: 5mph
Humidity: 49%   Direction: 70°ENE
Pressure: 30.05"   Gusts: NA
Location:  42.39°N, 95.87°W
Report Text: KSUX 252352Z AUTO 07004KT 10SM CLR 14/04 A3005 RMK AO2 SLP178 T01440039 10222 20144 58011
Loading
Personal Weather Stations






























Interactive Weather Map
Tropical Storm Tracking
New forecast layout! Learn more

10-Day Weather Forecast

Advertisements
Track Severe Weather on mobile